sensor_id;sensor_type;location;lat;lon;timestamp;pressure;altitude;pressure_sealevel;temperature;humidity
71344;BME280;59146;43.850;25.948;2022-08-24T00:00:33;100915.88;;;22.29;72.61
71344;BME280;59146;43.850;25.948;2022-08-24T00:02:59;100843.88;;;21.97;72.11
71344;BME280;59146;43.850;25.948;2022-08-24T00:05:25;100891.03;;;22.21;71.58
71344;BME280;59146;43.850;25.948;2022-08-24T00:07:50;100910.50;;;22.21;71.61
71344;BME280;59146;43.850;25.948;2022-08-24T00:10:18;100877.09;;;21.93;72.26
71344;BME280;59146;43.850;25.948;2022-08-24T00:12:45;100865.00;;;21.81;72.54
71344;BME280;59146;43.850;25.948;2022-08-24T00:15:13;100847.25;;;21.64;72.43
71344;BME280;59146;43.850;25.948;2022-08-24T00:17:39;100884.69;;;21.88;72.93
71344;BME280;59146;43.850;25.948;2022-08-24T00:20:07;100869.63;;;21.79;73.62
71344;BME280;59146;43.850;25.948;2022-08-24T00:22:33;100893.56;;;21.79;73.81
71344;BME280;59146;43.850;25.948;2022-08-24T00:24:59;100875.53;;;21.65;74.38
71344;BME280;59146;43.850;25.948;2022-08-24T00:27:24;100844.13;;;21.43;74.64
71344;BME280;59146;43.850;25.948;2022-08-24T00:29:50;100852.97;;;21.51;75.00
71344;BME280;59146;43.850;25.948;2022-08-24T00:32:15;100915.94;;;21.86;75.08
71344;BME280;59146;43.850;25.948;2022-08-24T00:34:41;100864.91;;;21.65;74.85
71344;BME280;59146;43.850;25.948;2022-08-24T00:37:06;100918.75;;;22.10;75.53
71344;BME280;59146;43.850;25.948;2022-08-24T00:39:32;100907.09;;;22.03;75.73
71344;BME280;59146;43.850;25.948;2022-08-24T00:41:57;100913.59;;;22.08;76.08
71344;BME280;59146;43.850;25.948;2022-08-24T00:44:23;100857.28;;;21.87;76.38
71344;BME280;59146;43.850;25.948;2022-08-24T00:46:51;100911.53;;;22.20;75.87
71344;BME280;59146;43.850;25.948;2022-08-24T00:49:38;100841.53;;;21.51;76.56
71344;BME280;59146;43.850;25.948;2022-08-24T00:52:26;100860.63;;;21.72;76.25
71344;BME280;59146;43.850;25.948;2022-08-24T00:54:58;100831.00;;;21.67;76.22
71344;BME280;59146;43.850;25.948;2022-08-24T00:57:29;100865.97;;;21.97;75.89
71344;BME280;59146;43.850;25.948;2022-08-24T00:59:59;100811.00;;;21.55;76.49
71344;BME280;59146;43.850;25.948;2022-08-24T01:02:30;100884.75;;;21.96;76.55
71344;BME280;59146;43.850;25.948;2022-08-24T01:04:59;100782.75;;;21.28;76.67
71344;BME280;59146;43.850;25.948;2022-08-24T01:07:27;100853.00;;;21.77;76.31
71344;BME280;59146;43.850;25.948;2022-08-24T01:09:56;100866.38;;;21.85;76.81
71344;BME280;59146;43.850;25.948;2022-08-24T01:12:23;100860.25;;;21.84;76.43
71344;BME280;59146;43.850;25.948;2022-08-24T01:14:51;100828.34;;;21.67;75.82
71344;BME280;59146;43.850;25.948;2022-08-24T01:17:16;100781.06;;;21.27;76.05
71344;BME280;59146;43.850;25.948;2022-08-24T01:20:01;100831.41;;;21.54;76.22
71344;BME280;59146;43.850;25.948;2022-08-24T01:25:03;100836.50;;;21.48;76.35
71344;BME280;59146;43.850;25.948;2022-08-24T01:27:30;100793.44;;;21.18;76.13
71344;BME280;59146;43.850;25.948;2022-08-24T01:29:58;100829.31;;;21.40;75.86
71344;BME280;59146;43.850;25.948;2022-08-24T01:32:26;100841.31;;;21.44;76.10
71344;BME280;59146;43.850;25.948;2022-08-24T01:34:54;100755.56;;;20.81;75.95
71344;BME280;59146;43.850;25.948;2022-08-24T01:37:20;100815.75;;;21.25;75.92
71344;BME280;59146;43.850;25.948;2022-08-24T01:39:48;100830.47;;;21.38;75.28
71344;BME280;59146;43.850;25.948;2022-08-24T01:42:14;100792.47;;;21.19;74.91
71344;BME280;59146;43.850;25.948;2022-08-24T01:44:41;100852.06;;;21.60;75.05
71344;BME280;59146;43.850;25.948;2022-08-24T01:47:09;100822.03;;;21.42;74.29
71344;BME280;59146;43.850;25.948;2022-08-24T01:49:40;100825.03;;;21.47;74.55
71344;BME280;59146;43.850;25.948;2022-08-24T01:52:08;100837.78;;;21.61;73.64
71344;BME280;59146;43.850;25.948;2022-08-24T01:54:34;100818.38;;;21.43;74.27
71344;BME280;59146;43.850;25.948;2022-08-24T01:57:00;100850.03;;;21.54;74.13
71344;BME280;59146;43.850;25.948;2022-08-24T01:59:26;100840.31;;;21.45;74.12
71344;BME280;59146;43.850;25.948;2022-08-24T02:01:57;100833.50;;;21.43;73.83
71344;BME280;59146;43.850;25.948;2022-08-24T02:04:24;100872.59;;;21.50;73.96
71344;BME280;59146;43.850;25.948;2022-08-24T02:06:49;100860.28;;;21.49;74.21
71344;BME280;59146;43.850;25.948;2022-08-24T02:09:15;100776.19;;;20.87;74.51
71344;BME280;59146;43.850;25.948;2022-08-24T02:11:41;100827.34;;;21.24;74.05
71344;BME280;59146;43.850;25.948;2022-08-24T02:14:06;100816.72;;;21.24;74.18
71344;BME280;59146;43.850;25.948;2022-08-24T02:16:32;100826.28;;;21.35;73.28
71344;BME280;59146;43.850;25.948;2022-08-24T02:18:57;100824.19;;;21.21;73.78
71344;BME280;59146;43.850;25.948;2022-08-24T02:21:24;100848.59;;;21.42;73.42
71344;BME280;59146;43.850;25.948;2022-08-24T02:23:49;100719.19;;;20.56;72.72
71344;BME280;59146;43.850;25.948;2022-08-24T02:26:16;100843.00;;;21.27;72.80
71344;BME280;59146;43.850;25.948;2022-08-24T02:28:42;100848.38;;;21.35;71.94
71344;BME280;59146;43.850;25.948;2022-08-24T02:31:09;100856.13;;;21.47;72.68
71344;BME280;59146;43.850;25.948;2022-08-24T02:33:36;100836.56;;;21.30;73.06
71344;BME280;59146;43.850;25.948;2022-08-24T02:36:04;100887.41;;;21.53;72.66
71344;BME280;59146;43.850;25.948;2022-08-24T02:38:29;100876.31;;;21.40;72.18
71344;BME280;59146;43.850;25.948;2022-08-24T02:40:55;100857.72;;;21.22;72.30
71344;BME280;59146;43.850;25.948;2022-08-24T02:43:22;100838.44;;;21.02;72.86
71344;BME280;59146;43.850;25.948;2022-08-24T02:45:49;100838.59;;;21.01;72.11
71344;BME280;59146;43.850;25.948;2022-08-24T02:48:15;100882.41;;;21.32;71.72
71344;BME280;59146;43.850;25.948;2022-08-24T02:50:44;100888.53;;;21.32;71.52
71344;BME280;59146;43.850;25.948;2022-08-24T02:53:11;100844.34;;;21.14;71.15
71344;BME280;59146;43.850;25.948;2022-08-24T02:55:39;100860.38;;;21.22;71.62
71344;BME280;59146;43.850;25.948;2022-08-24T02:58:05;100788.88;;;20.93;71.04
71344;BME280;59146;43.850;25.948;2022-08-24T03:00:31;100873.50;;;21.41;71.47
71344;BME280;59146;43.850;25.948;2022-08-24T03:02:57;100813.97;;;20.99;71.33
71344;BME280;59146;43.850;25.948;2022-08-24T03:05:22;100837.16;;;21.06;71.39
71344;BME280;59146;43.850;25.948;2022-08-24T03:07:48;100844.81;;;21.09;71.02
71344;BME280;59146;43.850;25.948;2022-08-24T03:10:14;100853.34;;;21.13;71.72
71344;BME280;59146;43.850;25.948;2022-08-24T03:12:40;100853.84;;;21.16;71.14
71344;BME280;59146;43.850;25.948;2022-08-24T03:15:08;100896.88;;;21.38;70.95
71344;BME280;59146;43.850;25.948;2022-08-24T03:17:35;100844.81;;;21.09;70.66
71344;BME280;59146;43.850;25.948;2022-08-24T03:20:03;100886.44;;;21.36;71.19
71344;BME280;59146;43.850;25.948;2022-08-24T03:22:29;100838.53;;;21.10;71.40
71344;BME280;59146;43.850;25.948;2022-08-24T03:24:55;100854.75;;;21.25;71.04
71344;BME280;59146;43.850;25.948;2022-08-24T03:27:20;100845.97;;;21.07;71.46
71344;BME280;59146;43.850;25.948;2022-08-24T03:29:46;100860.47;;;21.12;71.63
71344;BME280;59146;43.850;25.948;2022-08-24T03:32:11;100858.16;;;21.00;71.98
71344;BME280;59146;43.850;25.948;2022-08-24T03:34:37;100836.75;;;21.01;71.64
71344;BME280;59146;43.850;25.948;2022-08-24T03:37:03;100847.69;;;20.98;71.81
71344;BME280;59146;43.850;25.948;2022-08-24T03:39:28;100854.84;;;21.15;71.46
71344;BME280;59146;43.850;25.948;2022-08-24T03:41:54;100880.28;;;21.35;71.54
71344;BME280;59146;43.850;25.948;2022-08-24T03:44:19;100845.88;;;21.16;71.64
71344;BME280;59146;43.850;25.948;2022-08-24T03:46:45;100859.50;;;21.13;72.24
71344;BME280;59146;43.850;25.948;2022-08-24T03:49:11;100915.50;;;21.38;72.17
71344;BME280;59146;43.850;25.948;2022-08-24T03:51:39;100910.34;;;21.36;72.18
71344;BME280;59146;43.850;25.948;2022-08-24T03:54:07;100923.53;;;21.46;72.60
71344;BME280;59146;43.850;25.948;2022-08-24T03:56:32;100839.97;;;21.05;71.34
71344;BME280;59146;43.850;25.948;2022-08-24T03:58:59;100879.13;;;21.38;71.51
71344;BME280;59146;43.850;25.948;2022-08-24T04:01:25;100898.03;;;21.53;71.02
71344;BME280;59146;43.850;25.948;2022-08-24T04:03:50;100881.00;;;21.46;70.80
71344;BME280;59146;43.850;25.948;2022-08-24T04:06:19;100838.66;;;21.26;70.81
71344;BME280;59146;43.850;25.948;2022-08-24T04:08:46;100828.81;;;21.19;70.66
71344;BME280;59146;43.850;25.948;2022-08-24T04:11:13;100749.13;;;20.66;71.18
71344;BME280;59146;43.850;25.948;2022-08-24T04:13:39;100904.09;;;21.63;71.01
71344;BME280;59146;43.850;25.948;2022-08-24T04:16:07;100889.59;;;21.57;70.43
71344;BME280;59146;43.850;25.948;2022-08-24T04:18:33;100905.75;;;21.64;70.53
71344;BME280;59146;43.850;25.948;2022-08-24T04:20:59;100904.69;;;21.57;70.76
71344;BME280;59146;43.850;25.948;2022-08-24T04:23:24;100878.75;;;21.51;70.73
71344;BME280;59146;43.850;25.948;2022-08-24T04:25:50;100889.19;;;21.70;69.89
71344;BME280;59146;43.850;25.948;2022-08-24T04:28:17;100883.72;;;21.71;69.81
71344;BME280;59146;43.850;25.948;2022-08-24T04:30:45;100803.00;;;21.11;69.89
71344;BME280;59146;43.850;25.948;2022-08-24T04:33:14;100888.00;;;21.82;69.58
71344;BME280;59146;43.850;25.948;2022-08-24T04:35:43;100880.34;;;21.87;69.13
71344;BME280;59146;43.850;25.948;2022-08-24T04:38:10;100923.81;;;22.21;68.57
71344;BME280;59146;43.850;25.948;2022-08-24T04:40:39;100890.97;;;22.04;68.37
71344;BME280;59146;43.850;25.948;2022-08-24T04:43:06;100880.09;;;21.98;68.39
71344;BME280;59146;43.850;25.948;2022-08-24T04:45:32;100887.84;;;22.09;68.06
71344;BME280;59146;43.850;25.948;2022-08-24T04:47:58;100878.81;;;22.02;68.11
71344;BME280;59146;43.850;25.948;2022-08-24T04:50:24;100907.19;;;22.19;68.29
71344;BME280;59146;43.850;25.948;2022-08-24T04:52:50;100900.19;;;22.18;68.13
71344;BME280;59146;43.850;25.948;2022-08-24T04:55:15;100769.06;;;21.41;68.24
71344;BME280;59146;43.850;25.948;2022-08-24T04:57:41;100923.50;;;22.24;68.34
71344;BME280;59146;43.850;25.948;2022-08-24T05:00:07;100899.16;;;22.11;68.16
71344;BME280;59146;43.850;25.948;2022-08-24T05:02:35;100879.25;;;21.97;68.22
71344;BME280;59146;43.850;25.948;2022-08-24T05:05:03;100878.16;;;22.08;67.59
71344;BME280;59146;43.850;25.948;2022-08-24T05:07:29;100938.41;;;22.43;68.16
71344;BME280;59146;43.850;25.948;2022-08-24T05:09:54;100947.94;;;22.45;68.23
71344;BME280;59146;43.850;25.948;2022-08-24T05:12:20;100922.22;;;22.28;68.20
71344;BME280;59146;43.850;25.948;2022-08-24T05:14:45;100889.59;;;22.26;67.53
71344;BME280;59146;43.850;25.948;2022-08-24T05:17:11;100917.25;;;22.41;67.61
71344;BME280;59146;43.850;25.948;2022-08-24T05:19:36;100887.94;;;22.33;67.25
71344;BME280;59146;43.850;25.948;2022-08-24T05:22:01;100945.88;;;22.65;67.83
71344;BME280;59146;43.850;25.948;2022-08-24T05:24:27;100890.03;;;22.47;66.80
71344;BME280;59146;43.850;25.948;2022-08-24T05:26:54;100921.41;;;22.61;67.53
71344;BME280;59146;43.850;25.948;2022-08-24T05:29:19;100958.47;;;22.88;67.29
71344;BME280;59146;43.850;25.948;2022-08-24T05:31:45;100934.28;;;22.74;67.51
71344;BME280;59146;43.850;25.948;2022-08-24T05:34:11;100912.50;;;22.78;67.32
71344;BME280;59146;43.850;25.948;2022-08-24T05:36:40;100926.34;;;22.98;66.96
71344;BME280;59146;43.850;25.948;2022-08-24T05:39:09;100851.91;;;22.72;65.91
71344;BME280;59146;43.850;25.948;2022-08-24T05:41:35;100881.22;;;22.80;66.97
71344;BME280;59146;43.850;25.948;2022-08-24T05:44:01;100919.50;;;23.45;65.39
71344;BME280;59146;43.850;25.948;2022-08-24T05:46:27;100918.00;;;23.59;65.02
71344;BME280;59146;43.850;25.948;2022-08-24T05:48:52;100843.47;;;23.25;64.22
71344;BME280;59146;43.850;25.948;2022-08-24T05:51:20;100901.34;;;23.81;63.60
71344;BME280;59146;43.850;25.948;2022-08-24T05:53:45;100896.31;;;24.10;63.03
71344;BME280;59146;43.850;25.948;2022-08-24T05:56:13;100939.88;;;24.74;62.75
71344;BME280;59146;43.850;25.948;2022-08-24T05:58:39;100822.03;;;24.22;61.86
71344;BME280;59146;43.850;25.948;2022-08-24T06:01:11;100893.78;;;24.64;61.92
71344;BME280;59146;43.850;25.948;2022-08-24T06:03:38;100884.13;;;24.63;61.12
71344;BME280;59146;43.850;25.948;2022-08-24T06:06:04;100841.19;;;24.33;61.32
71344;BME280;59146;43.850;25.948;2022-08-24T06:08:33;100890.53;;;24.92;59.46
71344;BME280;59146;43.850;25.948;2022-08-24T06:10:59;100870.72;;;24.71;59.79
71344;BME280;59146;43.850;25.948;2022-08-24T06:13:26;100873.25;;;24.64;60.72
71344;BME280;59146;43.850;25.948;2022-08-24T06:16:08;100941.00;;;25.10;60.49
71344;BME280;59146;43.850;25.948;2022-08-24T06:18:34;100933.03;;;25.02;60.68
71344;BME280;59146;43.850;25.948;2022-08-24T06:21:11;100933.88;;;25.02;59.88
71344;BME280;59146;43.850;25.948;2022-08-24T06:23:38;100939.28;;;24.94;60.04
71344;BME280;59146;43.850;25.948;2022-08-24T06:26:05;100924.47;;;24.84;59.94
71344;BME280;59146;43.850;25.948;2022-08-24T06:28:50;100941.19;;;24.78;60.92
71344;BME280;59146;43.850;25.948;2022-08-24T06:31:17;100920.88;;;24.61;59.87
71344;BME280;59146;43.850;25.948;2022-08-24T06:33:43;100950.38;;;24.59;59.93
71344;BME280;59146;43.850;25.948;2022-08-24T06:36:08;100929.31;;;24.09;61.32
71344;BME280;59146;43.850;25.948;2022-08-24T06:38:34;100920.84;;;24.06;61.52
71344;BME280;59146;43.850;25.948;2022-08-24T06:40:59;100957.03;;;24.16;62.38
71344;BME280;59146;43.850;25.948;2022-08-24T06:43:25;100978.50;;;24.39;62.10
71344;BME280;59146;43.850;25.948;2022-08-24T06:45:52;100961.47;;;24.32;61.23
71344;BME280;59146;43.850;25.948;2022-08-24T06:48:19;100911.63;;;24.24;60.69
71344;BME280;59146;43.850;25.948;2022-08-24T06:50:45;100966.94;;;24.46;61.22
71344;BME280;59146;43.850;25.948;2022-08-24T06:53:11;100949.88;;;24.80;60.57
71344;BME280;59146;43.850;25.948;2022-08-24T06:55:50;100893.03;;;24.47;60.15
71344;BME280;59146;43.850;25.948;2022-08-24T06:58:16;100904.28;;;24.81;60.93
71344;BME280;59146;43.850;25.948;2022-08-24T07:00:42;100899.09;;;24.80;60.10
71344;BME280;59146;43.850;25.948;2022-08-24T07:03:08;100850.19;;;24.79;59.03
71344;BME280;59146;43.850;25.948;2022-08-24T07:05:33;100858.16;;;24.87;59.77
71344;BME280;59146;43.850;25.948;2022-08-24T07:08:00;100883.78;;;25.27;58.20
71344;BME280;59146;43.850;25.948;2022-08-24T07:10:26;100946.31;;;25.71;57.79
71344;BME280;59146;43.850;25.948;2022-08-24T07:12:52;100954.34;;;25.71;57.41
71344;BME280;59146;43.850;25.948;2022-08-24T07:15:18;100936.69;;;25.62;57.38
71344;BME280;59146;43.850;25.948;2022-08-24T07:17:44;100957.16;;;26.15;56.26
71344;BME280;59146;43.850;25.948;2022-08-24T07:20:10;100944.09;;;26.35;55.26
71344;BME280;59146;43.850;25.948;2022-08-24T07:22:37;100915.28;;;26.37;54.61
71344;BME280;59146;43.850;25.948;2022-08-24T07:25:03;100905.53;;;26.65;54.30
71344;BME280;59146;43.850;25.948;2022-08-24T07:27:29;100904.72;;;26.94;53.64
71344;BME280;59146;43.850;25.948;2022-08-24T07:29:55;100945.56;;;27.17;53.50
71344;BME280;59146;43.850;25.948;2022-08-24T07:32:21;100880.50;;;26.87;53.31
71344;BME280;59146;43.850;25.948;2022-08-24T07:34:47;100937.44;;;26.89;53.68
71344;BME280;59146;43.850;25.948;2022-08-24T07:37:13;100896.75;;;26.86;53.75
71344;BME280;59146;43.850;25.948;2022-08-24T07:39:39;100919.94;;;27.29;52.12
71344;BME280;59146;43.850;25.948;2022-08-24T07:42:05;100913.97;;;27.48;51.64
71344;BME280;59146;43.850;25.948;2022-08-24T07:44:30;100896.34;;;27.88;50.33
71344;BME280;59146;43.850;25.948;2022-08-24T07:46:56;100932.06;;;27.88;51.26
71344;BME280;59146;43.850;25.948;2022-08-24T07:49:21;100926.31;;;28.12;50.19
71344;BME280;59146;43.850;25.948;2022-08-24T07:51:47;100926.41;;;28.25;49.01
71344;BME280;59146;43.850;25.948;2022-08-24T07:54:14;100921.50;;;28.36;48.76
71344;BME280;59146;43.850;25.948;2022-08-24T07:56:41;100893.88;;;28.48;48.49
71344;BME280;59146;43.850;25.948;2022-08-24T07:59:06;100880.34;;;28.69;48.39
71344;BME280;59146;43.850;25.948;2022-08-24T08:01:32;100935.59;;;29.32;48.29
71344;BME280;59146;43.850;25.948;2022-08-24T08:03:58;100919.88;;;29.42;47.95
71344;BME280;59146;43.850;25.948;2022-08-24T08:06:24;100816.84;;;27.87;49.59
71344;BME280;59146;43.850;25.948;2022-08-24T08:08:50;100893.53;;;28.30;50.17
71344;BME280;59146;43.850;25.948;2022-08-24T08:11:15;100922.50;;;28.00;50.38
71344;BME280;59146;43.850;25.948;2022-08-24T08:13:41;100866.66;;;27.68;50.51
71344;BME280;59146;43.850;25.948;2022-08-24T08:16:07;100954.56;;;28.36;50.50
71344;BME280;59146;43.850;25.948;2022-08-24T08:18:33;100944.88;;;28.69;50.07
71344;BME280;59146;43.850;25.948;2022-08-24T08:20:58;100857.16;;;27.93;49.73
71344;BME280;59146;43.850;25.948;2022-08-24T08:23:25;100896.34;;;27.88;51.37
71344;BME280;59146;43.850;25.948;2022-08-24T08:26:16;100939.03;;;28.04;51.28
71344;BME280;59146;43.850;25.948;2022-08-24T08:28:44;100911.38;;;27.82;51.33
71344;BME280;59146;43.850;25.948;2022-08-24T08:31:09;100923.28;;;27.52;52.80
71344;BME280;59146;43.850;25.948;2022-08-24T08:33:35;100873.44;;;27.22;52.61
71344;BME280;59146;43.850;25.948;2022-08-24T08:36:09;100941.25;;;27.51;53.14
71344;BME280;59146;43.850;25.948;2022-08-24T08:38:36;100902.75;;;27.23;53.40
71344;BME280;59146;43.850;25.948;2022-08-24T08:41:10;100953.88;;;27.36;53.60
71344;BME280;59146;43.850;25.948;2022-08-24T08:46:34;100958.88;;;27.61;53.24
71344;BME280;59146;43.850;25.948;2022-08-24T08:50:05;100914.38;;;27.30;53.74
71344;BME280;59146;43.850;25.948;2022-08-24T09:00:19;100914.22;;;27.53;53.30
71344;BME280;59146;43.850;25.948;2022-08-24T09:03:09;100955.00;;;27.91;52.93
71344;BME280;59146;43.850;25.948;2022-08-24T09:08:17;100956.13;;;28.24;52.08
71344;BME280;59146;43.850;25.948;2022-08-24T09:13:32;100956.31;;;28.50;52.09
71344;BME280;59146;43.850;25.948;2022-08-24T09:30:17;100915.13;;;28.43;51.53
71344;BME280;59146;43.850;25.948;2022-08-24T09:46:42;100871.00;;;28.24;50.36
71344;BME280;59146;43.850;25.948;2022-08-24T09:52:06;100907.94;;;28.97;48.77
71344;BME280;59146;43.850;25.948;2022-08-24T09:55:00;100928.44;;;28.98;50.26
71344;BME280;59146;43.850;25.948;2022-08-24T10:00:24;100914.88;;;29.20;48.29
71344;BME280;59146;43.850;25.948;2022-08-24T10:03:10;100916.94;;;29.24;49.08
71344;BME280;59146;43.850;25.948;2022-08-24T10:06:11;100917.84;;;29.51;48.02
71344;BME280;59146;43.850;25.948;2022-08-24T10:08:56;100914.09;;;29.52;48.52
71344;BME280;59146;43.850;25.948;2022-08-24T10:14:40;100913.13;;;29.05;49.62
71344;BME280;59146;43.850;25.948;2022-08-24T10:20:11;100889.31;;;28.89;50.28
71344;BME280;59146;43.850;25.948;2022-08-24T10:23:18;100910.72;;;29.17;49.92
71344;BME280;59146;43.850;25.948;2022-08-24T10:26:06;100865.31;;;28.88;49.92
71344;BME280;59146;43.850;25.948;2022-08-24T10:31:30;100895.03;;;29.60;48.77
71344;BME280;59146;43.850;25.948;2022-08-24T10:54:26;100759.25;;;29.49;47.86
71344;BME280;59146;43.850;25.948;2022-08-24T11:02:30;100820.50;;;29.67;47.43
71344;BME280;59146;43.850;25.948;2022-08-24T11:04:58;100842.84;;;30.00;46.83
71344;BME280;59146;43.850;25.948;2022-08-24T11:07:25;100830.00;;;30.02;47.04
71344;BME280;59146;43.850;25.948;2022-08-24T11:10:03;100798.78;;;29.81;47.89
71344;BME280;59146;43.850;25.948;2022-08-24T11:12:41;100848.56;;;30.43;46.45
71344;BME280;59146;43.850;25.948;2022-08-24T11:17:53;100799.25;;;30.29;44.94
71344;BME280;59146;43.850;25.948;2022-08-24T11:20:27;100799.19;;;30.49;44.96
71344;BME280;59146;43.850;25.948;2022-08-24T11:23:01;100761.31;;;30.37;44.40
71344;BME280;59146;43.850;25.948;2022-08-24T11:25:31;100837.81;;;30.36;46.11
71344;BME280;59146;43.850;25.948;2022-08-24T11:28:04;100824.03;;;30.57;46.82
71344;BME280;59146;43.850;25.948;2022-08-24T11:30:37;100811.81;;;29.91;48.29
71344;BME280;59146;43.850;25.948;2022-08-24T11:33:28;100775.38;;;29.82;47.42
71344;BME280;59146;43.850;25.948;2022-08-24T11:35:54;100787.59;;;29.85;47.81
71344;BME280;59146;43.850;25.948;2022-08-24T11:38:31;100825.03;;;30.06;47.85
71344;BME280;59146;43.850;25.948;2022-08-24T11:46:38;100806.28;;;30.43;48.01
71344;BME280;59146;43.850;25.948;2022-08-24T11:50:10;100776.41;;;30.45;46.65
71344;BME280;59146;43.850;25.948;2022-08-24T11:52:29;100794.69;;;30.36;47.32
71344;BME280;59146;43.850;25.948;2022-08-24T11:55:29;100799.34;;;30.60;47.34
71344;BME280;59146;43.850;25.948;2022-08-24T11:58:02;100800.69;;;30.83;45.26
71344;BME280;59146;43.850;25.948;2022-08-24T12:01:35;100806.78;;;31.03;44.61
71344;BME280;59146;43.850;25.948;2022-08-24T12:03:42;100801.34;;;31.34;42.38
71344;BME280;59146;43.850;25.948;2022-08-24T12:06:26;100797.13;;;31.45;41.99
71344;BME280;59146;43.850;25.948;2022-08-24T12:09:08;100794.63;;;31.50;42.88
71344;BME280;59146;43.850;25.948;2022-08-24T12:12:02;100791.13;;;31.43;41.98
71344;BME280;59146;43.850;25.948;2022-08-24T12:14:52;100743.31;;;31.50;40.25
71344;BME280;59146;43.850;25.948;2022-08-24T12:17:56;100781.69;;;31.94;39.18
71344;BME280;59146;43.850;25.948;2022-08-24T12:20:43;100751.38;;;31.74;38.47
71344;BME280;59146;43.850;25.948;2022-08-24T12:23:18;100720.47;;;31.52;39.49
71344;BME280;59146;43.850;25.948;2022-08-24T12:25:49;100765.13;;;32.09;38.86
71344;BME280;59146;43.850;25.948;2022-08-24T12:28:39;100746.94;;;31.80;40.62
71344;BME280;59146;43.850;25.948;2022-08-24T12:31:15;100727.75;;;31.88;37.87
71344;BME280;59146;43.850;25.948;2022-08-24T12:33:47;100772.06;;;32.35;37.05
71344;BME280;59146;43.850;25.948;2022-08-24T12:36:21;100779.25;;;32.41;35.58
71344;BME280;59146;43.850;25.948;2022-08-24T12:39:09;100781.66;;;32.67;35.31
71344;BME280;59146;43.850;25.948;2022-08-24T12:42:00;100773.28;;;32.57;36.17
71344;BME280;59146;43.850;25.948;2022-08-24T12:44:44;100737.56;;;32.19;35.77
71344;BME280;59146;43.850;25.948;2022-08-24T12:50:26;100789.28;;;32.70;34.64
71344;BME280;59146;43.850;25.948;2022-08-24T13:01:33;100776.31;;;32.90;34.07
71344;BME280;59146;43.850;25.948;2022-08-24T13:07:05;100796.38;;;33.01;34.37
71344;BME280;59146;43.850;25.948;2022-08-24T13:17:43;100783.16;;;32.93;35.45
71344;BME280;59146;43.850;25.948;2022-08-24T13:33:33;100780.88;;;32.48;39.20
71344;BME280;59146;43.850;25.948;2022-08-24T13:48:01;100781.56;;;32.26;39.23
71344;BME280;59146;43.850;25.948;2022-08-24T13:55:53;100773.63;;;32.13;39.12
71344;BME280;59146;43.850;25.948;2022-08-24T13:58:37;100767.47;;;32.24;39.94
71344;BME280;59146;43.850;25.948;2022-08-24T14:04:03;100757.09;;;32.21;39.55
71344;BME280;59146;43.850;25.948;2022-08-24T14:09:34;100763.22;;;31.91;40.30
71344;BME280;59146;43.850;25.948;2022-08-24T14:15:57;100755.53;;;31.95;40.50
71344;BME280;59146;43.850;25.948;2022-08-24T14:26:59;100726.69;;;32.07;39.97
71344;BME280;59146;43.850;25.948;2022-08-24T14:31:50;100661.66;;;32.20;38.44
71344;BME280;59146;43.850;25.948;2022-08-24T14:37:51;100684.38;;;32.49;38.00
71344;BME280;59146;43.850;25.948;2022-08-24T14:48:44;100720.88;;;32.81;36.78
71344;BME280;59146;43.850;25.948;2022-08-24T15:07:59;100654.75;;;32.24;36.64
71344;BME280;59146;43.850;25.948;2022-08-24T15:10:37;100651.66;;;32.09;37.53
71344;BME280;59146;43.850;25.948;2022-08-24T15:16:08;100668.09;;;31.89;37.73
71344;BME280;59146;43.850;25.948;2022-08-24T15:18:44;100558.25;;;31.35;37.11
71344;BME280;59146;43.850;25.948;2022-08-24T15:24:18;100662.69;;;31.89;37.24
71344;BME280;59146;43.850;25.948;2022-08-24T15:29:32;100687.00;;;32.07;38.87
71344;BME280;59146;43.850;25.948;2022-08-24T15:34:40;100681.38;;;31.73;39.72
71344;BME280;59146;43.850;25.948;2022-08-24T15:37:08;100658.44;;;31.46;40.48
71344;BME280;59146;43.850;25.948;2022-08-24T15:39:34;100648.66;;;31.26;41.05
71344;BME280;59146;43.850;25.948;2022-08-24T15:42:05;100661.97;;;31.46;40.98
71344;BME280;59146;43.850;25.948;2022-08-24T15:44:32;100615.56;;;30.95;41.53
71344;BME280;59146;43.850;25.948;2022-08-24T15:47:03;100673.44;;;31.42;40.66
71344;BME280;59146;43.850;25.948;2022-08-24T15:49:36;100652.97;;;31.27;40.73
71344;BME280;59146;43.850;25.948;2022-08-24T15:55:02;100679.44;;;31.44;39.95
71344;BME280;59146;43.850;25.948;2022-08-24T15:57:34;100634.19;;;31.21;39.13
71344;BME280;59146;43.850;25.948;2022-08-24T16:00:18;100607.19;;;31.03;39.12
71344;BME280;59146;43.850;25.948;2022-08-24T16:11:38;100678.63;;;31.18;40.75
71344;BME280;59146;43.850;25.948;2022-08-24T16:14:32;100667.53;;;31.08;40.50
71344;BME280;59146;43.850;25.948;2022-08-24T16:16:56;100677.63;;;31.13;40.85
71344;BME280;59146;43.850;25.948;2022-08-24T16:19:25;100617.25;;;30.65;41.32
71344;BME280;59146;43.850;25.948;2022-08-24T16:22:07;100693.50;;;31.03;41.81
71344;BME280;59146;43.850;25.948;2022-08-24T16:24:37;100574.44;;;30.19;42.41
71344;BME280;59146;43.850;25.948;2022-08-24T16:37:52;100675.44;;;30.10;43.62
71344;BME280;59146;43.850;25.948;2022-08-24T16:40:20;100676.94;;;29.99;44.89
71344;BME280;59146;43.850;25.948;2022-08-24T16:42:45;100691.69;;;29.70;46.26
71344;BME280;59146;43.850;25.948;2022-08-24T16:45:14;100717.38;;;29.86;46.23
71344;BME280;59146;43.850;25.948;2022-08-24T16:47:41;100685.53;;;29.57;47.17